Date,TemperatureHighF,TemperatureAvgF,TemperatureLowF,DewpointHighF,DewpointAvgF,DewpointLowF,HumidityHigh,HumidityAvg,HumidityLow,PressureMaxIn,PressureMinIn,WindSpeedMaxMPH,WindSpeedAvgMPH,GustSpeedMaxMPH,PrecipitationSumIn
2013-1-1,15,7,0,5,1,-4,85,75,63,30.12,30.01,11,5,11,0.00
2013-1-2,24,18,11,17,11,4,84,75,59,30.03,29.92,13,6,13,0.00
2013-1-3,27,20,10,21,16,5,86,82,76,30.11,29.93,17,8,17,0.00
2013-1-4,30,20,9,20,14,5,87,79,65,30.07,29.96,22,10,22,0.00
2013-1-5,33,22,12,28,18,8,92,84,77,30.10,29.83,15,6,15,0.00
2013-1-6,29,22,14,22,17,10,85,80,75,30.16,29.96,22,5,22,0.00
2013-1-7,35,25,12,25,19,8,86,77,66,30.15,29.91,24,8,24,0.01
2013-1-8,40,31,19,31,26,16,93,80,66,29.98,29.81,21,5,21,0.04
2013-1-9,39,33,22,31,25,17,85,74,60,30.34,29.80,27,10,27,0.01
2013-1-10,39,30,19,33,25,16,93,82,67,30.36,29.76,18,6,18,0.26
2013-1-11,46,39,35,43,37,33,95,94,89,29.76,29.49,17,6,17,0.02
2013-1-12,46,34,22,43,27,15,90,78,68,29.91,29.50,32,12,32,0.02
2013-1-13,22,16,12,15,9,4,76,71,64,30.08,29.80,21,7,21,0.00
2013-1-14,24,15,7,11,7,2,81,71,55,30.31,30.08,16,5,16,0.00
2013-1-15,29,19,10,16,11,5,84,72,53,30.28,29.94,16,5,16,0.00
2013-1-16,33,26,17,28,19,10,83,75,63,29.95,29.65,26,9,26,0.00
2013-1-17,27,19,13,21,8,3,79,61,47,30.27,29.95,17,4,17,0.00
2013-1-18,41,29,13,32,22,7,81,75,67,30.28,29.71,29,9,29,0.00
2013-1-19,45,36,15,34,27,3,84,71,37,29.86,29.55,35,11,35,0.00
2013-1-20,15,9,6,7,-1,-2,73,62,49,30.19,29.86,28,8,28,0.00
2013-1-21,10,3,-3,2,-7,-12,75,63,51,30.14,29.99,22,9,22,0.00
2013-1-22,8,1,-7,-4,-8,-13,77,66,55,30.22,30.14,16,5,16,0.00
2013-1-23,19,12,3,13,4,-6,84,70,61,30.29,29.95,22,7,22,0.00
2013-1-24,16,7,-2,9,-2,-8,75,67,55,30.51,30.19,14,5,14,0.00
2013-1-25,27,19,13,17,12,6,84,73,60,30.19,29.81,19,8,19,0.00
2013-1-26,25,17,6,14,8,1,80,68,53,30.26,30.07,12,4,12,0.00
2013-1-27,33,28,21,31,22,12,93,80,67,30.19,29.73,18,7,18,0.00
2013-1-28,43,36,33,36,32,30,94,87,74,29.84,29.65,17,4,17,0.27
2013-1-29,54,42,34,52,40,32,96,93,88,29.68,29.39,16,6,16,2.01
2013-1-30,34,26,14,33,24,10,94,90,84,29.51,29.24,17,2,17,0.07
2013-1-31,14,10,0,10,3,-6,83,75,64,30.01,29.51,21,5,21,0.00
2013-2-1,6,0,-7,2,-6,-12,83,74,66,30.18,29.98,16,8,16,0.00
2013-2-2,12,8,3,3,1,-3,84,75,62,29.98,29.88,11,3,11,0.00
2013-2-3,19,14,7,11,7,3,85,76,64,29.90,29.80,24,5,24,0.00
2013-2-4,18,13,8,12,7,1,86,75,60,29.87,29.80,12,4,13,0.00
2013-2-5,29,20,7,23,14,1,88,80,75,29.98,29.65,17,6,17,0.00
2013-2-6,34,22,5,29,16,2,90,80,61,30.09,29.93,15,3,15,0.04
2013-2-7,36,31,21,33,28,18,92,89,85,29.97,29.81,14,6,20,0.01
2013-2-8,25,20,8,18,14,4,88,79,68,30.25,29.97,17,4,17,0.00
2013-2-9,31,23,7,24,19,4,91,85,76,30.26,29.93,16,5,16,0.01
2013-2-10,41,33,21,39,31,18,95,91,84,29.94,29.28,24,9,24,0.64
2013-2-11,37,30,25,33,25,19,87,81,75,29.87,29.29,37,15,37,0.00
2013-2-12,30,24,20,21,18,15,88,77,66,29.96,29.74,19,8,19,0.00
2013-2-13,24,21,18,20,18,15,89,87,86,29.74,29.64,8,3,8,0.00
2013-2-17,25,23,22,18,16,13,74,72,68,29.91,29.79,13,8,13,0.00
2013-2-18,45,34,22,36,29,17,93,81,68,29.79,29.37,21,7,21,0.07
2013-2-19,22,13,7,17,6,-2,86,73,64,30.06,29.46,24,11,24,0.00
2013-2-20,23,14,5,10,4,-2,75,67,56,30.24,30.06,17,6,17,0.02
2013-2-21,25,18,9,23,14,4,92,82,71,30.29,29.92,29,8,29,0.00
2013-2-22,36,28,23,30,24,20,91,84,72,29.93,29.67,24,7,24,0.00
2013-2-23,33,26,21,22,19,15,85,76,63,29.82,29.72,17,8,17,0.01
2013-2-24,39,26,16,26,18,12,87,74,54,30.01,29.82,8,3,9,0.07
2013-2-25,43,29,17,29,22,13,88,74,56,30.04,29.91,9,2,9,0.00
2013-2-26,34,30,27,28,26,22,93,83,71,29.91,29.54,32,13,32,0.00
2013-2-27,34,30,27,30,27,24,93,89,76,29.69,29.52,24,8,24,0.14
2013-2-28,36,31,24,29,25,18,91,80,66,30.01,29.68,15,7,21,0.04
2013-3-1,28,22,14,19,16,9,87,77,63,30.12,30.01,14,5,17,0.00
2013-3-2,28,17,10,14,9,4,84,71,44,30.12,30.03,12,3,12,0.00
2013-3-3,29,17,5,12,7,-1,82,66,45,30.03,29.96,8,2,8,0.01
2013-3-4,36,24,12,25,16,4,84,72,55,29.99,29.89,19,6,19,0.00
2013-3-5,30,28,24,26,24,21,91,86,81,29.99,29.77,22,9,22,0.00
2013-3-6,35,28,24,26,22,18,86,78,68,30.19,29.99,18,5,18,0.01
2013-3-7,39,24,10,24,15,6,86,71,49,30.28,30.18,7,2,7,0.03
2013-3-8,39,26,12,28,20,9,91,78,62,30.32,30.14,13,4,13,0.00
2013-3-9,43,35,29,34,30,23,91,81,65,30.14,29.67,18,7,18,0.42
2013-3-10,41,37,34,39,35,32,94,93,89,29.69,29.52,25,7,25,0.91
2013-3-11,35,32,30,32,30,25,94,90,83,29.65,29.45,16,4,16,0.03
2013-3-12,35,28,25,26,22,17,89,78,64,29.89,29.65,20,8,20,0.01
2013-3-13,32,24,18,20,12,7,83,61,37,30.17,29.89,18,6,18,0.00
2013-3-14,39,27,14,28,19,7,87,72,59,30.17,29.93,10,4,10,0.01
2013-3-15,40,32,26,33,28,23,91,86,74,29.93,29.69,19,4,19,0.09
2013-3-16,33,26,20,25,20,16,90,77,62,30.01,29.68,19,7,19,0.00
2013-3-17,33,23,16,20,14,7,82,69,58,30.12,29.87,16,7,16,0.00
2013-3-18,38,27,17,31,22,10,87,81,73,29.87,29.46,26,7,26,0.11
2013-3-19,29,19,12,13,9,6,80,65,47,29.92,29.60,26,13,26,0.00
2013-3-20,23,15,8,8,3,-2,68,61,49,29.95,29.89,19,8,19,0.00
2013-3-21,28,18,8,12,7,1,74,62,47,29.93,29.87,15,4,15,0.00
2013-3-22,34,23,13,17,11,6,76,61,40,29.95,29.89,10,3,10,0.00
2013-3-23,39,28,18,22,17,10,79,63,45,30.01,29.92,10,3,10,0.00
2013-3-24,32,29,27,28,24,20,88,80,72,29.95,29.68,25,9,25,0.01
2013-3-25,36,30,24,25,22,18,80,71,61,29.97,29.72,20,7,20,0.00
2013-3-26,41,35,29,28,24,21,76,65,50,30.13,29.97,14,4,14,0.00
2013-3-27,45,36,30,27,23,18,76,59,39,30.19,30.12,10,4,10,0.00
2013-3-28,48,35,25,23,20,18,74,56,36,30.22,30.15,9,3,9,0.00
2013-3-29,49,37,24,26,22,18,79,56,37,30.20,30.09,9,2,9,0.00
2013-3-30,53,42,33,40,32,23,87,68,56,30.09,29.70,21,6,21,0.01
2013-3-31,47,39,31,40,32,18,92,77,56,29.80,29.62,23,8,23,0.00
2013-4-1,35,30,24,20,14,10,66,53,40,30.07,29.80,23,7,23,0.00
2013-4-2,40,30,22,17,15,11,73,54,33,30.19,30.06,18,5,18,0.00
2013-4-3,45,34,22,21,17,12,72,51,31,30.32,30.13,13,3,13,0.00
2013-4-4,57,43,31,36,27,19,68,55,40,30.13,29.83,24,9,24,0.00
2013-4-5,49,39,30,29,25,21,72,57,37,30.12,29.93,21,5,21,0.00
2013-4-6,62,46,34,48,34,20,88,63,44,30.00,29.44,21,10,25,0.08
2013-4-7,55,45,36,45,35,31,84,71,50,29.84,29.47,20,6,20,0.00
2013-4-8,54,44,36,48,40,31,93,84,76,29.88,29.50,20,8,20,0.44
2013-4-9,41,38,36,39,36,33,94,92,89,29.90,29.75,26,11,26,1.11
2013-4-10,37,34,32,35,32,29,94,92,86,29.96,29.77,24,9,24,0.66
2013-4-11,38,36,34,36,34,32,94,93,89,29.79,29.47,43,13,43,0.32
2013-4-12,42,36,34,37,32,28,95,86,77,29.67,29.40,16,6,17,0.22
2013-4-13,39,35,31,29,27,24,85,72,62,29.86,29.65,22,9,22,0.00
2013-4-14,52,39,31,45,33,24,90,81,69,29.87,29.43,29,9,29,0.12
2013-4-15,60,48,40,49,41,34,93,78,43,29.84,29.44,35,9,35,0.54
2013-4-16,52,42,32,35,32,28,85,68,45,30.16,29.84,17,5,17,0.00
2013-4-17,42,40,37,40,36,32,94,85,72,30.18,29.73,26,9,26,1.10
2013-4-18,58,46,37,57,43,32,96,91,81,29.77,29.21,37,10,37,0.54
2013-4-19,39,35,31,32,28,21,86,75,62,29.78,29.25,32,15,34,0.02
2013-4-20,53,35,25,24,18,14,81,53,29,30.24,29.78,19,5,19,0.00
2013-4-21,54,42,31,35,29,24,78,62,43,30.34,30.11,21,8,21,0.00
2013-4-22,69,54,42,44,38,33,72,56,37,30.12,29.86,17,7,17,0.00
2013-4-23,55,44,37,46,35,28,86,73,57,29.87,29.75,19,7,19,0.00
2013-4-24,55,42,32,30,26,19,77,54,32,29.90,29.83,24,6,24,0.00
2013-4-25,54,44,36,34,31,26,85,62,39,30.14,29.83,24,8,24,0.10
2013-4-26,69,54,38,46,38,26,70,54,42,30.13,29.99,28,11,28,0.00
2013-4-27,67,56,46,50,45,39,88,67,48,30.09,29.88,15,5,15,0.00
2013-4-28,76,59,42,49,44,37,85,61,38,29.88,29.67,11,3,11,0.00
2013-4-29,70,61,52,56,52,46,82,71,57,29.73,29.59,18,6,18,0.06
2013-4-30,87,72,59,62,54,47,89,58,28,29.77,29.55,27,11,27,0.04
2013-5-1,81,67,54,57,50,42,68,55,41,30.09,29.77,22,6,22,0.00
2013-5-2,56,46,37,43,37,33,88,72,58,30.17,30.07,25,10,25,0.12
2013-5-3,47,40,35,45,38,32,94,91,87,30.07,29.86,18,8,18,0.34
2013-5-4,72,58,47,55,48,44,93,72,46,29.92,29.83,17,6,17,0.04
2013-5-5,75,61,48,51,46,40,83,60,38,29.94,29.87,15,4,15,0.09
2013-5-6,78,63,46,48,43,39,78,51,29,29.95,29.87,14,3,14,0.00
2013-5-7,84,68,54,50,43,37,66,43,23,29.94,29.86,12,2,12,0.00
2013-5-8,85,68,50,53,46,41,78,49,23,29.91,29.83,17,2,17,0.00
2013-5-9,67,59,47,57,52,45,93,77,53,29.83,29.73,23,6,23,0.72
2013-5-10,53,45,41,46,42,38,93,87,78,29.86,29.73,21,6,21,0.74
2013-5-11,54,47,40,48,36,26,93,67,38,29.90,29.65,24,9,29,0.00
2013-5-12,58,45,35,30,25,21,64,48,27,30.07,29.90,21,6,21,0.00
2013-5-13,68,52,31,41,32,23,84,52,25,30.14,29.87,16,4,16,0.00
2013-5-14,90,70,50,58,48,38,64,47,26,29.87,29.53,42,8,42,0.02
2013-5-18,82,75,64,66,63,58,81,66,55,30.01,29.90,13,6,13,0.00
2013-5-19,86,72,60,67,62,56,89,70,47,29.92,29.64,34,7,34,0.02
2013-5-20,85,73,62,65,60,57,92,67,45,29.78,29.58,26,8,26,0.52
2013-5-21,80,70,61,64,58,53,83,67,46,29.68,29.59,22,8,22,0.00
2013-5-22,73,63,54,63,57,51,92,82,65,29.76,29.59,16,4,16,0.46
2013-5-23,62,53,44,51,44,35,93,73,40,30.26,29.75,22,8,22,0.09
2013-5-24,66,52,35,45,39,31,92,64,41,30.40,30.24,10,3,10,0.00
2013-5-25,63,54,46,44,39,34,75,57,41,30.33,30.24,13,4,13,0.00
2013-5-26,70,55,43,50,42,33,79,63,42,30.26,30.11,17,6,17,0.04
2013-5-27,56,53,50,52,48,41,94,85,65,30.11,29.84,18,8,18,0.05
2013-5-28,77,62,50,67,58,49,95,87,70,29.84,29.67,13,4,13,0.88
2013-5-29,83,72,61,70,64,59,94,77,59,29.86,29.73,19,5,19,0.81
2013-5-30,84,73,62,71,65,59,93,78,58,29.85,29.67,30,8,30,0.45
2013-5-31,80,69,62,67,62,59,91,79,57,29.75,29.64,21,8,21,0.01
2013-6-1,80,70,62,66,61,54,93,73,47,29.67,29.58,19,6,19,0.00
2013-6-2,69,56,48,56,44,39,87,66,43,29.97,29.67,22,5,22,0.00
2013-6-3,81,60,41,54,43,37,89,57,29,30.05,29.96,10,2,10,0.00
2013-6-4,73,62,52,54,48,43,84,61,43,30.12,30.02,16,4,16,0.07
2013-6-5,69,57,50,57,51,46,89,81,62,30.09,29.89,15,5,15,0.16
2013-6-6,60,56,51,54,51,48,92,84,76,29.91,29.87,14,5,14,0.20
2013-6-7,81,60,52,56,49,46,87,69,36,29.95,29.87,12,3,12,0.13
2013-6-8,76,64,52,53,49,45,80,60,38,29.95,29.88,12,3,12,0.00
2013-6-9,81,68,56,61,55,48,90,65,47,29.96,29.75,37,10,37,0.08
2013-6-10,86,72,59,65,61,56,92,70,46,29.82,29.73,14,4,14,0.01
2013-6-11,87,75,59,68,63,55,90,67,48,29.87,29.75,18,4,18,0.00
2013-6-12,78,70,61,68,64,58,93,83,69,29.87,29.58,32,9,32,0.76
2013-6-13,78,68,58,60,56,54,89,67,45,30.01,29.72,34,6,34,0.00
2013-6-14,79,68,52,60,55,48,93,66,48,30.11,29.95,25,6,25,0.00
2013-6-15,86,70,56,70,62,50,92,75,56,30.01,29.77,35,8,35,0.82
2013-6-16,92,76,67,69,60,50,94,61,31,29.87,29.81,31,6,31,0.00
2013-6-17,91,75,63,62,57,51,77,54,33,29.92,29.83,34,7,34,0.00
2013-6-18,73,63,55,57,51,45,84,67,41,30.04,29.92,38,10,38,0.00
2013-6-19,91,68,48,58,50,42,84,55,32,30.10,30.01,30,5,30,0.00
2013-6-20,94,75,57,64,56,43,68,53,34,30.09,29.99,13,4,13,0.00
2013-6-21,85,72,65,69,63,58,92,75,56,30.05,29.80,24,5,24,0.67
2013-6-22,84,72,66,71,66,62,92,83,64,30.05,29.86,26,6,26,1.17
2013-6-23,88,75,63,74,67,61,93,77,60,30.01,29.81,19,7,19,0.35
2013-6-24,85,74,68,71,66,64,91,77,56,29.97,29.78,18,5,18,0.00
2013-6-25,88,74,65,74,68,62,93,82,62,29.90,29.75,17,4,17,1.14
2013-6-26,96,76,65,73,68,61,94,77,47,29.76,29.67,24,4,24,1.65
2013-6-27,91,79,70,72,67,59,93,68,40,29.76,29.65,17,5,17,0.00
2013-6-28,78,70,64,65,61,57,90,72,54,29.70,29.60,20,5,20,0.07
2013-6-29,73,66,63,62,60,56,92,82,62,29.80,29.59,22,6,22,0.35
2013-6-30,77,68,56,59,53,49,80,61,40,30.00,29.80,24,6,24,0.00
2013-7-1,80,69,58,57,52,48,75,57,36,30.07,30.00,19,5,19,0.00
2013-7-2,74,66,55,55,50,40,85,59,29,30.07,30.01,17,5,17,0.00
2013-7-3,75,64,54,61,55,46,85,73,60,30.04,29.97,9,2,9,0.00
2013-7-4,90,73,58,65,59,55,93,64,40,30.03,29.96,11,3,11,0.00
2013-7-5,87,76,64,68,63,59,86,65,46,30.02,29.95,19,6,23,0.00
2013-7-6,91,78,64,69,64,58,84,64,45,29.99,29.91,19,5,19,0.00
2013-7-7,92,80,67,72,68,62,90,69,47,29.95,29.87,25,6,25,0.00
2013-7-8,91,80,71,75,71,67,90,75,57,29.94,29.85,21,6,27,0.45
2013-7-9,88,77,69,74,71,66,92,82,64,29.96,29.78,23,6,23,1.02
2013-7-10,80,74,64,72,61,55,88,66,45,29.97,29.80,13,5,19,0.00
2013-7-11,92,72,55,63,56,51,87,60,35,30.08,29.97,12,2,12,0.00
2013-7-12,92,74,56,62,55,51,85,56,32,30.11,30.02,18,3,18,0.00
2013-7-13,88,74,59,66,59,53,82,62,41,30.11,30.03,13,4,13,0.00
2013-7-14,93,78,62,70,64,55,84,65,45,30.17,30.09,10,4,11,0.00
2013-7-15,94,82,68,75,70,63,88,69,48,30.23,30.15,13,3,13,0.00
2013-7-16,100,86,72,77,73,69,91,68,46,30.23,30.17,14,4,14,0.00
2013-7-17,102,87,74,77,73,70,87,66,44,30.24,30.11,14,4,14,0.00
2013-7-18,96,86,75,77,72,70,85,64,46,30.12,29.85,27,9,27,0.00
2013-7-19,96,84,72,73,69,62,73,61,41,29.85,29.70,33,9,33,0.00
2013-7-20,90,76,63,67,61,56,80,63,40,29.92,29.79,14,5,14,0.00
2013-7-21,86,68,59,68,60,55,92,77,54,29.92,29.82,25,6,25,1.17
2013-7-22,88,74,61,72,65,59,93,76,54,29.84,29.61,26,5,26,0.03
2013-7-23,75,69,57,63,56,50,89,65,48,29.94,29.67,23,5,23,0.00
2013-7-24,84,65,52,59,52,48,91,64,35,30.03,29.94,10,2,10,0.00
2013-7-25,83,68,55,65,58,49,88,71,47,30.01,29.91,18,5,18,0.07
2013-7-26,79,69,61,68,60,54,91,76,46,29.91,29.78,21,5,21,0.16
2013-7-27,63,56,50,55,47,44,87,73,56,29.90,29.81,20,6,20,0.00
2013-7-28,69,59,50,53,50,46,91,74,54,29.95,29.78,17,6,17,0.01
2013-7-29,77,65,53,60,54,49,88,71,52,30.10,29.95,14,3,14,0.00
2013-7-30,78,66,54,62,58,52,93,78,54,30.11,30.02,14,4,14,0.00
2013-7-31,84,70,61,67,61,55,90,75,53,30.03,29.90,22,4,22,0.00
2013-8-1,85,69,59,59,56,51,91,65,40,29.95,29.84,29,5,30,0.00
2013-8-2,84,72,63,66,58,52,89,65,37,29.91,29.77,24,5,24,0.11
2013-8-3,80,68,54,58,52,48,82,58,37,30.07,29.91,27,4,27,0.00
2013-8-4,78,66,54,58,53,48,86,64,41,30.16,30.04,14,3,14,0.00
2013-8-5,75,65,57,63,58,52,89,80,62,30.05,29.80,17,4,17,0.08
2013-8-6,90,76,65,71,66,62,92,74,51,29.82,29.73,22,5,22,0.00
2013-8-7,81,74,65,70,64,56,91,72,52,29.92,29.70,25,5,25,0.00
2013-8-8,82,70,59,64,59,52,92,69,47,29.99,29.91,19,5,19,0.00
2013-8-9,83,71,58,64,57,50,78,62,44,30.00,29.92,20,5,20,0.00
2013-8-10,78,67,55,60,53,49,83,64,44,30.09,30.00,20,3,20,0.00
2013-8-11,77,65,54,65,59,50,91,82,66,30.07,29.96,22,5,22,0.10
2013-8-12,81,71,64,66,61,56,92,73,47,29.97,29.85,14,4,20,0.00
2013-8-13,72,62,52,57,49,46,85,63,43,30.09,29.92,29,7,29,0.00
2013-8-14,77,62,46,57,49,42,91,64,41,30.15,30.05,21,3,21,0.00
2013-8-15,81,67,56,59,54,50,82,63,37,30.08,30.02,19,3,19,0.00
2013-8-16,83,69,54,57,53,48,84,59,33,30.12,30.05,18,3,18,0.00
2013-8-17,85,70,54,59,54,48,85,60,34,30.17,30.09,31,3,31,0.00
2013-8-18,84,70,53,61,55,47,84,60,37,30.14,30.02,17,3,17,0.00
2013-8-19,87,72,56,63,58,51,85,64,41,30.03,29.95,43,4,43,0.00
2013-8-20,90,77,65,66,63,59,87,65,42,30.00,29.92,35,7,35,0.00
2013-8-21,91,80,69,71,67,63,83,65,48,29.95,29.85,40,10,40,0.00
2013-8-22,81,72,65,71,66,59,93,83,67,30.07,29.91,48,6,48,1.23
2013-8-23,83,70,56,62,58,52,91,67,45,30.12,30.04,22,4,22,0.00
2013-8-24,87,72,55,69,61,50,88,70,53,30.17,30.08,23,4,23,0.00
2013-8-25,90,78,69,71,66,61,83,67,51,30.12,30.01,44,10,44,0.00
2013-8-26,92,81,72,75,70,64,78,69,56,30.06,29.88,34,8,34,0.00
2013-8-27,94,84,75,75,72,68,81,67,50,29.90,29.74,46,9,46,0.00
2013-8-28,84,76,69,73,69,64,92,79,63,29.99,29.77,28,6,28,0.00
2013-8-29,88,76,63,72,66,60,92,73,48,30.02,29.90,31,5,31,0.00
2013-8-30,94,79,69,77,70,64,90,75,55,29.90,29.70,32,10,32,0.00
2013-8-31,83,72,65,68,63,60,89,75,60,29.82,29.72,32,4,32,0.00
2013-9-1,86,72,63,73,64,56,93,76,46,29.78,29.65,28,6,28,0.07
2013-9-2,73,64,54,59,55,48,90,73,51,29.94,29.76,25,5,28,0.00
2013-9-3,76,61,47,56,51,43,90,71,45,30.02,29.93,28,4,28,0.00
2013-9-4,87,68,54,65,57,49,90,70,45,30.04,29.95,32,6,32,0.00
2013-9-5,77,67,55,61,56,47,90,70,53,30.18,30.04,29,7,29,0.00
2013-9-6,87,72,52,66,58,46,82,64,49,30.13,29.91,32,6,32,0.00
2013-9-7,91,79,69,71,66,61,87,65,49,29.91,29.81,17,5,17,0.00
2013-9-8,72,67,62,66,62,57,87,83,77,29.99,29.88,20,7,20,0.00
2013-9-9,93,78,63,75,68,60,92,73,55,29.89,29.70,17,5,17,0.00
2013-9-10,95,84,74,68,64,61,69,53,34,29.88,29.75,24,8,24,0.00
2013-9-11,84,73,66,67,64,61,90,73,50,30.03,29.88,17,4,17,0.27
2013-9-12,74,65,56,62,53,46,90,68,45,30.06,29.90,20,5,20,0.00
2013-9-13,64,54,44,47,41,37,89,64,38,30.14,30.05,14,4,14,0.00
2013-9-14,74,58,42,48,43,37,90,62,38,30.07,29.89,14,4,14,0.00
2013-9-15,61,56,54,55,51,44,91,83,58,30.14,29.88,19,4,19,0.66
2013-9-16,63,53,40,50,44,37,88,72,50,30.30,30.13,17,6,17,0.00
2013-9-17,73,56,40,55,48,36,92,76,49,30.25,29.99,15,4,15,0.04
2013-9-18,78,67,58,66,60,54,90,80,62,29.99,29.80,19,5,19,0.11
2013-9-19,88,72,66,73,67,62,93,85,52,29.81,29.63,24,6,24,2.17
2013-9-20,72,65,55,64,59,51,93,80,60,29.75,29.65,19,7,19,0.02
2013-9-21,61,53,46,51,46,42,91,77,60,29.86,29.75,16,4,19,0.00
2013-9-22,63,52,42,48,43,39,91,74,52,29.99,29.86,10,3,10,0.00
2013-9-23,67,54,42,53,47,40,93,78,55,30.02,29.94,12,4,12,0.00
2013-9-24,71,57,46,54,48,43,94,77,50,29.95,29.86,13,4,13,0.00
2013-9-25,72,56,46,56,49,44,94,80,53,29.91,29.85,8,3,9,0.00
2013-9-26,75,59,43,58,50,41,94,74,46,29.99,29.89,16,4,16,0.01
2013-9-27,80,64,49,57,51,45,92,67,36,30.04,29.94,18,4,18,0.00
2013-9-28,80,66,53,64,55,46,90,69,52,29.95,29.74,23,8,23,0.17
2013-9-29,70,60,46,50,46,42,94,61,39,29.98,29.88,7,2,7,0.02
2013-9-30,72,61,45,50,45,40,85,59,37,29.90,29.73,17,6,17,0.00
2013-10-1,79,66,57,61,56,49,90,71,52,29.88,29.74,22,9,22,0.00
2013-10-2,75,61,46,53,45,39,89,60,30,30.02,29.88,11,3,11,0.00
2013-10-3,77,66,56,67,59,43,91,80,58,29.88,29.74,12,4,15,0.00
2013-10-4,68,64,60,64,61,58,93,91,87,29.92,29.78,15,4,15,0.24
2013-10-5,75,65,59,70,62,52,95,91,79,29.86,29.66,19,5,19,0.23
2013-10-6,59,51,42,51,42,39,91,73,51,29.68,29.58,15,5,15,0.11
2013-10-7,66,52,43,47,43,38,93,74,44,29.98,29.62,19,5,19,0.03
2013-10-8,74,58,41,52,45,37,88,65,37,30.04,29.97,17,3,17,0.00
2013-10-9,73,59,48,51,45,40,85,63,34,30.11,30.01,16,4,16,0.00
2013-10-10,74,57,41,54,46,37,91,70,42,30.06,29.94,11,2,11,0.00
2013-10-11,75,61,50,60,52,46,91,74,53,29.94,29.81,20,6,20,0.00
2013-10-12,69,61,44,60,50,36,90,69,43,30.04,29.79,22,6,22,0.12
2013-10-13,59,48,38,43,36,31,86,66,38,30.29,30.04,12,3,16,0.00
2013-10-14,61,47,33,44,38,28,87,72,52,30.29,30.00,16,4,16,0.00
2013-10-15,61,52,45,57,47,41,92,83,71,30.00,29.63,22,8,23,0.25
2013-10-16,54,50,46,48,45,43,91,85,78,29.83,29.67,19,6,19,0.02
2013-10-17,54,46,40,44,40,36,92,81,53,29.81,29.70,12,2,16,0.12
2013-10-18,49,44,39,42,37,34,89,79,68,29.83,29.68,16,5,18,0.00
2013-10-19,52,41,32,40,35,28,89,78,46,29.80,29.60,27,5,27,0.03
2013-10-20,48,41,31,45,38,28,93,87,68,29.73,29.58,18,2,18,0.13
2013-10-21,46,38,29,42,29,22,86,71,56,29.83,29.63,22,5,22,0.01
2013-10-22,46,35,25,32,26,20,85,69,51,29.85,29.78,10,2,10,0.00
2013-10-23,43,34,27,30,26,23,88,73,47,29.89,29.82,18,4,18,0.00
2013-10-24,42,34,27,28,25,22,84,69,49,30.16,29.89,16,4,16,0.00
2013-10-25,51,41,27,31,27,22,83,60,44,30.22,29.78,25,4,25,0.00
2013-10-26,51,45,38,36,30,25,72,56,44,29.95,29.66,36,5,36,0.00
2013-10-27,53,41,28,32,28,23,86,62,40,29.94,29.77,21,4,21,0.00
2013-10-28,43,39,35,32,30,27,85,70,62,30.28,29.91,21,4,21,0.00
2013-10-29,53,43,36,41,35,28,88,74,62,30.27,30.00,13,4,13,0.00
2013-10-30,55,50,44,53,47,40,94,90,82,30.00,29.63,12,4,13,0.00
2013-10-31,62,55,42,59,52,38,94,91,85,29.63,29.18,21,6,21,0.60
2013-11-1,47,43,38,43,39,35,90,87,81,29.64,29.24,21,3,21,0.04
2013-11-2,45,39,31,36,34,28,93,84,69,30.02,29.63,13,3,13,0.01
2013-11-3,49,38,26,39,32,23,94,80,54,30.16,30.02,14,4,14,0.00
2013-11-4,52,47,40,45,39,35,85,73,64,30.07,29.90,19,7,19,0.00
2013-11-5,55,50,46,49,46,43,93,87,74,30.12,29.73,20,5,20,0.38
2013-11-6,54,42,30,52,36,23,94,82,62,30.03,29.57,28,6,28,0.27
2013-11-7,40,34,27,32,27,22,87,77,65,30.10,30.03,16,4,16,0.00
2013-11-8,45,36,23,34,29,20,91,76,58,30.14,29.66,22,3,22,0.00
2013-11-9,51,46,37,40,35,25,78,66,53,29.96,29.62,25,9,25,0.00
2013-11-10,47,41,36,31,29,26,71,62,50,30.19,29.96,17,7,17,0.00
2013-11-11,43,32,21,33,24,12,90,72,61,30.42,29.92,17,5,17,0.05
2013-11-12,29,22,17,17,13,11,78,69,53,30.56,30.39,14,4,14,0.00
2013-11-13,41,30,18,20,16,12,80,57,39,30.40,29.91,24,8,24,0.00
2013-11-14,47,39,32,32,25,18,72,58,49,29.91,29.75,20,6,20,0.01
2013-11-15,54,42,33,38,32,26,84,68,54,29.80,29.73,13,4,13,0.00
2013-11-16,57,47,36,53,44,31,93,89,83,29.75,29.36,28,8,28,0.09
2013-11-17,57,49,38,53,45,31,94,87,75,29.55,29.06,31,9,31,0.99
2013-11-18,38,32,25,31,24,19,82,72,60,30.12,29.55,25,9,25,0.00
2013-11-19,39,29,18,28,23,15,87,77,59,30.21,30.08,10,1,10,0.00
2013-11-20,39,35,31,33,29,27,91,79,63,30.08,29.94,12,2,13,0.03
2013-11-21,43,39,36,38,35,33,91,87,80,30.12,29.96,12,2,12,0.00
2013-11-22,37,30,22,33,23,14,90,76,58,30.33,30.10,15,6,15,0.03
2013-11-23,24,17,9,15,6,2,73,63,48,30.56,30.25,20,6,20,0.00
2013-11-24,26,17,7,9,5,2,80,61,39,30.53,30.08,26,8,26,0.00
2013-11-25,30,26,21,25,19,8,89,77,51,30.08,29.86,27,12,27,0.00
2013-11-26,31,24,11,25,16,2,83,69,53,30.07,29.86,19,6,19,0.00
2013-11-27,25,18,10,13,8,2,80,68,52,30.12,30.03,15,5,15,0.00
2013-11-28,29,24,20,17,14,11,72,65,56,30.35,29.99,13,4,13,0.00
2013-11-29,31,22,10,22,15,5,86,73,60,30.45,30.17,11,2,11,0.00
2013-11-30,42,31,26,30,24,20,82,76,64,30.17,29.89,15,6,15,0.00
2013-12-1,39,33,27,28,25,23,85,74,60,30.00,29.83,10,2,10,0.00
2013-12-2,40,31,23,33,27,20,92,85,73,29.83,29.59,17,6,17,0.00
2013-12-3,38,36,33,37,34,31,94,94,92,29.62,29.53,17,7,17,0.24
2013-12-4,48,39,34,47,37,28,95,93,81,29.62,29.32,32,8,32,0.10
2013-12-5,33,20,13,29,13,7,85,73,61,30.12,29.49,25,12,30,0.00
2013-12-6,16,10,6,7,3,0,79,71,58,30.37,30.09,16,5,16,0.00
2013-12-7,15,7,0,2,-1,-5,82,70,51,30.51,30.37,12,3,12,0.00
2013-12-8,20,14,7,17,8,-2,88,77,62,30.42,29.79,16,6,16,0.00
2013-12-9,16,8,-5,12,3,-10,86,78,64,30.01,29.77,25,8,26,0.00
2013-12-10,18,8,-5,10,1,-10,83,73,60,30.08,29.73,28,10,28,0.00
2013-12-11,14,6,-5,10,-2,-13,85,70,55,30.34,30.07,17,6,17,0.00
2013-12-12,17,10,-4,10,2,-10,78,72,63,30.30,29.99,20,9,20,0.00
2013-12-13,24,18,12,17,12,7,84,78,69,30.04,29.96,21,7,21,0.00
2013-12-14,23,20,17,18,16,12,87,84,80,30.01,29.76,21,7,21,0.00
2013-12-15,19,10,3,15,1,-7,82,68,57,29.96,29.76,19,7,19,0.00
2013-12-16,15,7,-3,11,1,-10,88,74,59,29.96,29.82,13,4,13,0.00
2013-12-17,34,24,14,24,18,11,90,78,59,29.90,29.73,19,8,19,0.00
2013-12-18,33,23,10,25,15,4,81,71,57,29.93,29.60,23,7,23,0.00
2013-12-19,31,26,21,26,22,18,91,83,72,29.82,29.61,19,6,19,0.00
2013-12-20,24,22,20,21,19,17,92,89,87,29.73,29.65,0,0,0,0.00
2013-12-21,26,24,22,24,22,19,92,91,90,29.73,29.56,0,0,0,0.00
2013-12-22,26,23,18,23,20,15,90,87,80,29.94,29.54,0,0,0,0.00
2013-12-23,20,10,-2,17,5,-6,90,80,71,30.23,29.94,0,0,0,0.00
2013-12-24,12,2,-10,6,-3,-14,86,79,68,30.33,30.09,0,0,0,0.00
2013-12-25,24,19,10,19,15,6,88,85,78,30.09,29.88,0,0,0,0.00
2013-12-26,28,20,11,20,15,7,85,80,72,30.04,29.91,17,4,17,0.00
2013-12-27,35,26,12,29,22,10,90,83,77,30.06,29.82,19,5,19,0.00
2013-12-28,40,34,23,32,28,20,91,79,71,29.86,29.57,16,8,18,0.23
2013-12-29,37,18,-4,30,12,-12,89,76,67,30.05,29.55,22,7,22,0.00
2013-12-30,6,-2,-11,-3,-10,-18,79,68,53,30.12,29.99,9,2,9,0.00
2013-12-31,10,3,-4,2,-3,-9,82,77,66,30.15,29.97,11,3,11,0.00
2014-1-1,8,4,-1,0,-4,-9,73,69,64,30.17,30.09,16,7,18,0.00
2014-1-2,11,5,-3,1,-2,-10,80,71,62,30.22,30.05,18,6,18,0.00